createdAt,value
2023-11-15T00:04:45.769Z,64.37
2023-11-15T00:14:47.856Z,64.21
2023-11-15T00:24:49.588Z,64.17
2023-11-15T00:34:51.686Z,64.50
2023-11-15T00:44:53.736Z,64.45
2023-11-15T00:54:56.100Z,64.54
2023-11-15T01:04:58.764Z,64.12
2023-11-15T01:15:00.670Z,63.92
2023-11-15T01:25:02.400Z,64.30
2023-11-15T01:35:06.752Z,64.09
2023-11-15T01:45:10.250Z,64.11
2023-11-15T01:55:17.888Z,64.01
2023-11-15T02:05:19.898Z,64.04
2023-11-15T02:15:22.793Z,64.19
2023-11-15T02:25:24.908Z,63.97
2023-11-15T02:35:26.790Z,64.22
2023-11-15T02:45:28.568Z,64.05
2023-11-15T02:55:30.604Z,63.94
2023-11-15T03:05:32.545Z,64.17
2023-11-15T03:15:34.639Z,64.29
2023-11-15T03:25:37.198Z,64.28
2023-11-15T03:35:39.222Z,64.04
2023-11-15T03:45:41.106Z,63.97
2023-11-15T03:55:45.417Z,63.86
2023-11-15T04:05:48.846Z,63.71
2023-11-15T04:15:51.329Z,63.77
2023-11-15T04:25:53.139Z,64.11
2023-11-15T04:35:54.925Z,63.82
2023-11-15T04:45:56.920Z,63.96
2023-11-15T04:55:59.234Z,63.95
2023-11-15T05:06:01.239Z,63.89
2023-11-15T05:16:05.411Z,63.55
2023-11-15T05:26:10.565Z,63.73
2023-11-15T05:36:12.335Z,63.82
2023-11-15T05:46:14.247Z,63.75
2023-11-15T05:56:17.403Z,63.42
2023-11-15T06:06:19.334Z,63.56
2023-11-15T06:16:21.122Z,63.72
2023-11-15T06:26:23.276Z,63.51
2023-11-15T06:36:25.362Z,63.35
2023-11-15T06:46:27.413Z,63.74
2023-11-15T06:56:30.223Z,63.92
2023-11-15T07:06:33.646Z,63.92
2023-11-15T07:16:35.817Z,63.78
2023-11-15T07:26:38.281Z,64.32
2023-11-15T07:36:39.996Z,65.47
2023-11-15T07:46:42.687Z,65.21
2023-11-15T07:56:46.798Z,65.35
2023-11-15T08:06:49.783Z,65.74
2023-11-15T08:16:51.788Z,65.46
2023-11-15T08:26:57.497Z,65.20
2023-11-15T08:36:59.592Z,64.92
2023-11-15T08:47:02.121Z,64.52
2023-11-15T08:57:04.789Z,64.60
2023-11-15T09:07:08.818Z,64.40
2023-11-15T09:17:17.707Z,64.56
2023-11-15T09:27:19.485Z,63.97
2023-11-15T09:37:21.480Z,64.45
2023-11-15T09:47:25.235Z,64.45
2023-11-15T09:57:27.428Z,64.51
2023-11-15T10:07:30.417Z,64.77
2023-11-15T10:17:44.414Z,64.52
2023-11-15T10:27:47.467Z,64.62
2023-11-15T10:37:53.168Z,64.61
2023-11-15T10:47:58.703Z,64.39
2023-11-15T10:58:03.658Z,64.09
2023-11-15T11:08:30.291Z,63.94
2023-11-15T11:18:32.359Z,63.93
2023-11-15T11:29:04.358Z,63.93
2023-11-15T11:39:06.775Z,63.68
2023-11-15T11:49:09.500Z,64.03
2023-11-15T11:59:14.115Z,63.52
2023-11-15T12:09:23.618Z,63.33
2023-11-15T12:19:27.977Z,63.57
2023-11-15T12:29:31.894Z,63.17
2023-11-15T12:39:38.243Z,62.89
2023-11-15T12:49:40.586Z,62.72
2023-11-15T12:59:43.597Z,62.61
2023-11-15T13:09:46.688Z,62.21
2023-11-15T13:19:49.483Z,62.37
2023-11-15T13:29:52.102Z,61.90
2023-11-15T13:39:54.173Z,62.06
2023-11-15T13:49:55.996Z,61.53
2023-11-15T13:59:59.020Z,61.71
2023-11-15T14:10:02.403Z,61.79
2023-11-15T14:20:06.292Z,61.15
2023-11-15T14:30:11.803Z,61.21
2023-11-15T14:40:17.501Z,61.06
2023-11-15T14:50:20.014Z,61.21
2023-11-15T15:00:22.127Z,60.85
2023-11-15T15:10:24.025Z,60.64
2023-11-15T15:20:26.239Z,60.92
2023-11-15T15:30:34.266Z,60.60
2023-11-15T15:40:39.834Z,60.75
2023-11-15T15:50:42.506Z,60.76
2023-11-15T16:00:44.256Z,60.52
2023-11-15T16:10:46.707Z,60.81
2023-11-15T16:20:48.983Z,61.66
2023-11-15T16:30:51.227Z,61.33
2023-11-15T16:40:55.772Z,61.11
2023-11-15T16:50:58.182Z,61.00
2023-11-15T17:01:00.495Z,60.89
2023-11-15T17:11:02.255Z,61.56
2023-11-15T17:21:04.438Z,61.83
2023-11-15T17:31:06.355Z,61.63
2023-11-15T17:41:11.809Z,61.57
2023-11-15T17:51:13.550Z,61.51
2023-11-15T18:01:15.700Z,61.71
2023-11-15T18:11:18.341Z,61.47
2023-11-15T18:21:22.513Z,61.46
2023-11-15T18:31:25.963Z,61.46
2023-11-15T18:41:29.152Z,61.57
2023-11-15T18:51:31.905Z,61.59
2023-11-15T19:01:35.524Z,62.02
2023-11-15T19:11:37.736Z,62.55
2023-11-15T19:21:40.847Z,62.81
2023-11-15T19:31:45.645Z,63.36
2023-11-15T19:41:48.612Z,63.28
2023-11-15T19:51:54.412Z,63.05
2023-11-15T20:01:56.729Z,62.57
2023-11-15T20:11:58.801Z,62.36
2023-11-15T20:22:02.016Z,62.82
2023-11-15T20:32:04.007Z,62.82
2023-11-15T20:42:07.450Z,62.79
2023-11-15T20:52:11.360Z,62.63
2023-11-15T21:02:16.004Z,62.81
2023-11-15T21:12:18.829Z,62.44
2023-11-15T21:22:25.195Z,62.48
2023-11-15T21:32:28.608Z,62.03
2023-11-15T21:42:32.003Z,62.48
2023-11-15T21:52:38.186Z,62.27
2023-11-15T22:02:39.981Z,62.03
2023-11-15T22:12:42.984Z,61.90
2023-11-15T22:22:45.980Z,62.38
2023-11-15T22:32:47.983Z,62.03
2023-11-15T22:42:50.356Z,62.29
2023-11-15T22:52:52.413Z,62.10
2023-11-15T23:02:54.787Z,61.65
2023-11-15T23:12:56.729Z,61.92
2023-11-15T23:22:58.418Z,61.86
2023-11-15T23:33:00.179Z,61.87
2023-11-15T23:43:02.285Z,61.88
2023-11-15T23:53:04.167Z,61.74
